Time;durP1;ratioP1;P1;durP2;ratioP2;P2;SDS_P1;SDS_P2;PMS_P1;PMS_P2;Temp;Humidity;BMP_temperature;BMP_pressure;BME280_temperature;BME280_humidity;BME280_pressure;Samples;Min_cycle;Max_cycle;Signal;HPM_P1;HPM_P2
2022/02/26 00:01:40;;;;;;;;;;;9.80;91.90;;;;;;5089642;28;19919;-73
2022/02/26 00:04:06;;;;;;;;;;;9.80;91.80;;;;;;5089529;28;19912;-74
2022/02/26 00:06:31;;;;;;;;;;;9.90;91.80;;;;;;5089380;28;19946;-73
2022/02/26 00:08:57;;;;;;;;;;;9.90;91.80;;;;;;5089858;28;20004;-73
2022/02/26 00:11:23;;;;;;;;;;;9.90;91.70;;;;;;5089547;28;20009;-74
2022/02/26 00:13:48;;;;;;;;;;;10.00;91.70;;;;;;5089289;28;19912;-73
2022/02/26 00:16:14;;;;;;;;;;;10.00;91.70;;;;;;5089596;28;19912;-73
2022/02/26 00:18:40;;;;;;;;;;;10.00;91.70;;;;;;5088183;28;20006;-73
2022/02/26 00:21:05;;;;;;;;;;;10.00;91.60;;;;;;5089508;28;19938;-73
2022/02/26 00:23:31;;;;;;;;;;;10.00;91.50;;;;;;5089840;28;19908;-73
2022/02/26 00:25:57;;;;;;;;;;;10.10;91.50;;;;;;5089429;28;20000;-73
2022/02/26 00:28:22;;;;;;;;;;;10.10;91.40;;;;;;5089040;28;19938;-73
2022/02/26 00:30:48;;;;;;;;;;;10.10;91.30;;;;;;5089365;28;20350;-73
2022/02/26 00:33:13;;;;;;;;;;;10.10;91.30;;;;;;5089036;28;20273;-74
2022/02/26 00:35:40;;;;;;;;;;;10.20;91.30;;;;;;5089005;28;19931;-74
2022/02/26 00:38:05;;;;;;;;;;;10.20;91.30;;;;;;5089164;28;20013;-74
2022/02/26 00:40:31;;;;;;;;;;;10.20;91.20;;;;;;5089030;28;20020;-73
2022/02/26 00:42:58;;;;;;;;;;;10.20;91.10;;;;;;5088764;28;19912;-73
2022/02/26 00:45:23;;;;;;;;;;;10.20;91.10;;;;;;5087522;28;20403;-74
2022/02/26 00:47:49;;;;;;;;;;;10.20;91.10;;;;;;5088824;28;19947;-74
2022/02/26 00:50:15;;;;;;;;;;;10.20;91.20;;;;;;5088800;28;20336;-73
2022/02/26 00:52:41;;;;;;;;;;;10.30;91.00;;;;;;5088763;28;19919;-73
2022/02/26 00:55:07;;;;;;;;;;;10.30;90.90;;;;;;5088865;28;19961;-73
2022/02/26 00:57:33;;;;;;;;;;;10.30;90.80;;;;;;5088815;28;19994;-73
2022/02/26 00:59:59;;;;;;;;;;;10.30;90.60;;;;;;5087143;28;20014;-74
2022/02/26 01:02:24;;;;;;;;;;;10.20;90.60;;;;;;5087951;28;19912;-73
2022/02/26 01:04:50;;;;;;;;;;;10.30;90.70;;;;;;5088544;28;19919;-73
2022/02/26 01:07:16;;;;;;;;;;;10.30;90.60;;;;;;5086819;28;19913;-74
2022/02/26 01:09:41;;;;;;;;;;;10.20;90.70;;;;;;5088108;28;19912;-73
2022/02/26 01:12:08;;;;;;;;;;;10.30;90.50;;;;;;5088314;28;19912;-73
2022/02/26 01:14:33;;;;;;;;;;;10.30;90.40;;;;;;5088367;28;19916;-74
2022/02/26 01:17:00;;;;;;;;;;;10.30;90.40;;;;;;5086907;28;20057;-73
2022/02/26 01:19:26;;;;;;;;;;;10.30;90.40;;;;;;5088863;28;20399;-73
2022/02/26 01:21:51;;;;;;;;;;;10.30;90.30;;;;;;5088123;28;20003;-73
2022/02/26 01:24:17;;;;;;;;;;;10.20;90.40;;;;;;5088288;28;19912;-73
2022/02/26 01:26:42;;;;;;;;;;;10.20;90.40;;;;;;5087978;28;19952;-73
2022/02/26 01:29:08;;;;;;;;;;;10.20;90.30;;;;;;5088122;28;19924;-74
2022/02/26 01:31:34;;;;;;;;;;;10.20;90.30;;;;;;5088053;28;19914;-74
2022/02/26 01:34:00;;;;;;;;;;;10.20;90.30;;;;;;5087811;28;19951;-73
2022/02/26 01:36:26;;;;;;;;;;;10.20;90.40;;;;;;5088176;28;20381;-74
2022/02/26 01:38:52;;;;;;;;;;;10.20;90.30;;;;;;5087644;28;19908;-74
2022/02/26 01:41:17;;;;;;;;;;;10.20;90.30;;;;;;5088129;28;19908;-74
2022/02/26 01:43:43;;;;;;;;;;;10.20;90.30;;;;;;5088056;28;19918;-73
2022/02/26 01:46:10;;;;;;;;;;;10.20;90.30;;;;;;5086802;28;19931;-74
2022/02/26 01:48:36;;;;;;;;;;;10.20;90.20;;;;;;5088057;28;20040;-73
2022/02/26 01:51:03;;;;;;;;;;;10.20;90.30;;;;;;5088012;28;20011;-73
2022/02/26 01:53:28;;;;;;;;;;;10.20;90.20;;;;;;5088053;28;19919;-74
2022/02/26 01:55:54;;;;;;;;;;;10.20;90.30;;;;;;5088131;28;20359;-73
2022/02/26 01:58:20;;;;;;;;;;;10.10;90.30;;;;;;5069677;28;19919;-73
2022/02/26 02:00:45;;;;;;;;;;;10.10;90.30;;;;;;5088022;28;19923;-73
2022/02/26 02:03:11;;;;;;;;;;;10.10;90.30;;;;;;5087851;28;19913;-73
2022/02/26 02:05:37;;;;;;;;;;;10.00;90.30;;;;;;5088051;28;19913;-73
2022/02/26 02:08:03;;;;;;;;;;;10.00;90.30;;;;;;5088115;28;20293;-74
2022/02/26 02:10:28;;;;;;;;;;;10.00;90.30;;;;;;5086620;28;19913;-74
2022/02/26 02:12:54;;;;;;;;;;;9.90;90.30;;;;;;5087770;28;20340;-73
2022/02/26 02:15:36;;;;;;;;;;;9.90;90.40;;;;;;5087899;28;19973;-73
2022/02/26 02:18:02;;;;;;;;;;;9.90;90.40;;;;;;5087731;28;20355;-74
2022/02/26 02:20:28;;;;;;;;;;;9.80;90.40;;;;;;5087863;28;19999;-73
2022/02/26 02:22:54;;;;;;;;;;;9.80;90.40;;;;;;5087668;28;20332;-73
2022/02/26 02:25:23;;;;;;;;;;;9.80;90.30;;;;;;5086503;28;19908;-73
2022/02/26 02:27:49;;;;;;;;;;;9.80;90.30;;;;;;5087736;28;20002;-74
2022/02/26 02:30:14;;;;;;;;;;;9.70;90.30;;;;;;5087608;28;20014;-73
2022/02/26 02:32:42;;;;;;;;;;;9.70;90.30;;;;;;5086166;28;19912;-74
2022/02/26 02:35:07;;;;;;;;;;;9.60;90.30;;;;;;5087571;28;20199;-74
2022/02/26 02:37:33;;;;;;;;;;;9.50;90.30;;;;;;5087823;28;19995;-74
2022/02/26 02:39:58;;;;;;;;;;;9.50;90.40;;;;;;5087571;28;20000;-74
2022/02/26 02:42:24;;;;;;;;;;;9.40;90.40;;;;;;5086152;28;19920;-74
2022/02/26 02:44:49;;;;;;;;;;;9.40;90.40;;;;;;5087487;28;19919;-73
2022/02/26 02:47:15;;;;;;;;;;;9.40;90.40;;;;;;5087575;28;19959;-74
2022/02/26 02:49:40;;;;;;;;;;;9.30;90.40;;;;;;5087793;28;20359;-74
2022/02/26 02:52:06;;;;;;;;;;;9.30;90.40;;;;;;5091262;28;20526;-73
2022/02/26 02:54:32;;;;;;;;;;;9.30;90.40;;;;;;5089900;28;19955;-74
2022/02/26 02:56:57;;;;;;;;;;;9.30;90.40;;;;;;5091183;28;19912;-74
2022/02/26 02:59:24;;;;;;;;;;;9.30;90.30;;;;;;5089794;28;19967;-73
2022/02/26 03:01:50;;;;;;;;;;;9.30;90.30;;;;;;5091595;28;19916;-74
2022/02/26 03:04:16;;;;;;;;;;;9.30;90.30;;;;;;5089691;28;20398;-73
2022/02/26 03:06:41;;;;;;;;;;;9.30;90.20;;;;;;5091072;28;19947;-74
2022/02/26 03:09:08;;;;;;;;;;;9.30;90.20;;;;;;5090932;28;20385;-73
2022/02/26 03:11:33;;;;;;;;;;;9.30;90.20;;;;;;5089517;28;19919;-73
2022/02/26 03:13:59;;;;;;;;;;;9.30;90.10;;;;;;5090861;28;19912;-73
2022/02/26 03:16:24;;;;;;;;;;;9.30;90.10;;;;;;5090761;28;20375;-73
2022/02/26 03:18:50;;;;;;;;;;;9.30;90.10;;;;;;5090874;28;20027;-72
2022/02/26 03:21:15;;;;;;;;;;;9.40;90.00;;;;;;5090747;28;19923;-72
2022/02/26 03:23:41;;;;;;;;;;;9.30;90.00;;;;;;5090621;28;20506;-73
2022/02/26 03:26:07;;;;;;;;;;;9.30;90.00;;;;;;5090794;28;20408;-72
2022/02/26 03:28:32;;;;;;;;;;;9.30;89.90;;;;;;5091169;28;20006;-73
2022/02/26 03:30:58;;;;;;;;;;;9.30;89.80;;;;;;5089357;28;19916;-73
2022/02/26 03:33:23;;;;;;;;;;;9.30;89.70;;;;;;5090492;28;19916;-73
2022/02/26 03:35:49;;;;;;;;;;;9.30;89.50;;;;;;5090367;28;19931;-73
2022/02/26 03:38:14;;;;;;;;;;;9.30;89.40;;;;;;5090743;28;19916;-73
2022/02/26 03:40:40;;;;;;;;;;;9.30;89.30;;;;;;5090586;28;20006;-73
2022/02/26 03:43:05;;;;;;;;;;;9.40;89.10;;;;;;5088678;28;19943;-73
2022/02/26 03:45:31;;;;;;;;;;;9.50;88.80;;;;;;5088685;28;19942;-73
2022/02/26 03:47:57;;;;;;;;;;;9.50;88.50;;;;;;5090150;28;19913;-73
2022/02/26 03:50:22;;;;;;;;;;;9.50;88.30;;;;;;5090171;28;19965;-73
2022/02/26 03:52:48;;;;;;;;;;;9.50;88.20;;;;;;5088716;28;19912;-73
2022/02/26 03:55:13;;;;;;;;;;;9.60;88.00;;;;;;5090090;28;19915;-73
2022/02/26 03:57:39;;;;;;;;;;;9.60;87.90;;;;;;5090402;28;19919;-73
2022/02/26 04:00:05;;;;;;;;;;;9.60;87.20;;;;;;5088591;28;19912;-73
2022/02/26 04:02:31;;;;;;;;;;;9.60;86.90;;;;;;5087758;28;20382;-73
2022/02/26 04:04:57;;;;;;;;;;;9.60;86.50;;;;;;5089876;28;19942;-73
2022/02/26 04:07:22;;;;;;;;;;;9.60;86.30;;;;;;5089795;28;19913;-73
2022/02/26 04:09:48;;;;;;;;;;;9.60;86.30;;;;;;5089798;28;19915;-73
2022/02/26 04:12:13;;;;;;;;;;;9.60;86.30;;;;;;5089728;28;20346;-73
2022/02/26 04:14:39;;;;;;;;;;;9.60;86.40;;;;;;5089705;28;19934;-73
2022/02/26 04:17:04;;;;;;;;;;;9.60;86.40;;;;;;5089702;28;20319;-73
2022/02/26 04:19:30;;;;;;;;;;;9.60;86.40;;;;;;5089836;28;19912;-73
2022/02/26 04:21:56;;;;;;;;;;;9.60;86.60;;;;;;5089465;28;19952;-73
2022/02/26 04:24:21;;;;;;;;;;;9.60;86.70;;;;;;5089789;28;20142;-73
2022/02/26 04:26:47;;;;;;;;;;;9.80;86.90;;;;;;5089438;28;19924;-73
2022/02/26 04:29:13;;;;;;;;;;;9.80;86.80;;;;;;5089406;28;19962;-73
2022/02/26 04:31:38;;;;;;;;;;;9.80;86.80;;;;;;5089394;28;20444;-73
2022/02/26 04:34:04;;;;;;;;;;;9.90;86.80;;;;;;5087787;28;19923;-74
2022/02/26 04:36:31;;;;;;;;;;;9.90;86.80;;;;;;5089327;28;19908;-74
2022/02/26 04:38:56;;;;;;;;;;;9.90;86.90;;;;;;5089299;28;19998;-73
2022/02/26 04:41:22;;;;;;;;;;;9.90;87.10;;;;;;5089137;28;20011;-73
2022/02/26 04:43:48;;;;;;;;;;;9.90;87.20;;;;;;5089084;28;19963;-73
2022/02/26 04:46:13;;;;;;;;;;;9.90;87.20;;;;;;5089084;28;19915;-73
2022/02/26 04:48:39;;;;;;;;;;;9.90;87.30;;;;;;5088861;28;19919;-73
2022/02/26 04:51:08;;;;;;;;;;;9.80;87.50;;;;;;5089079;28;20070;-73
2022/02/26 04:53:37;;;;;;;;;;;9.80;87.70;;;;;;5088865;28;19912;-73
2022/02/26 04:56:03;;;;;;;;;;;9.80;87.80;;;;;;5088967;28;19915;-73
2022/02/26 04:58:28;;;;;;;;;;;9.80;87.80;;;;;;5087507;28;19916;-73
2022/02/26 05:00:54;;;;;;;;;;;9.70;87.90;;;;;;5087595;28;20332;-73
2022/02/26 05:03:19;;;;;;;;;;;9.80;88.20;;;;;;5088651;28;19942;-73
2022/02/26 05:05:45;;;;;;;;;;;9.70;88.30;;;;;;5088736;28;19912;-73
2022/02/26 05:08:11;;;;;;;;;;;9.80;88.30;;;;;;5087514;28;20366;-73
2022/02/26 05:10:37;;;;;;;;;;;9.70;88.20;;;;;;5088657;28;19916;-73
2022/02/26 05:13:03;;;;;;;;;;;9.60;88.40;;;;;;5088040;28;20282;-73
2022/02/26 05:15:28;;;;;;;;;;;9.60;88.60;;;;;;5088178;28;19914;-73
2022/02/26 05:17:54;;;;;;;;;;;9.50;89.10;;;;;;5088603;28;19920;-73
2022/02/26 05:20:20;;;;;;;;;;;9.50;89.40;;;;;;5088726;28;19939;-73
2022/02/26 05:22:45;;;;;;;;;;;9.40;89.50;;;;;;5088307;28;20010;-73
2022/02/26 05:25:11;;;;;;;;;;;9.40;89.90;;;;;;5088578;28;19997;-73
2022/02/26 05:27:37;;;;;;;;;;;9.40;90.20;;;;;;5088473;28;19908;-73
2022/02/26 05:30:03;;;;;;;;;;;9.40;90.00;;;;;;5088837;28;20368;-73
2022/02/26 05:32:29;;;;;;;;;;;9.40;90.10;;;;;;5070130;28;19919;-73
2022/02/26 05:34:54;;;;;;;;;;;9.30;90.20;;;;;;5088196;28;19924;-73
2022/02/26 05:37:20;;;;;;;;;;;9.30;90.20;;;;;;5088239;28;19954;-73
2022/02/26 05:39:46;;;;;;;;;;;9.30;90.30;;;;;;5088316;28;19919;-73
2022/02/26 05:42:11;;;;;;;;;;;9.30;90.30;;;;;;5088013;28;19916;-73
2022/02/26 05:44:37;;;;;;;;;;;9.20;90.30;;;;;;5088134;28;19934;-73
2022/02/26 05:47:03;;;;;;;;;;;9.20;90.30;;;;;;5088243;28;20344;-73
2022/02/26 05:49:28;;;;;;;;;;;9.20;90.40;;;;;;5088133;28;19959;-73
2022/02/26 05:51:54;;;;;;;;;;;9.20;90.50;;;;;;5088032;28;19912;-73
2022/02/26 05:54:19;;;;;;;;;;;9.20;90.70;;;;;;5088118;28;20287;-73
2022/02/26 05:56:45;;;;;;;;;;;9.40;90.80;;;;;;5087946;28;20337;-73
2022/02/26 05:59:11;;;;;;;;;;;9.40;90.80;;;;;;5087977;28;20305;-73
2022/02/26 06:01:36;;;;;;;;;;;9.50;90.80;;;;;;5088145;28;19919;-73
2022/02/26 06:04:02;;;;;;;;;;;9.60;90.80;;;;;;5087990;28;19919;-73
2022/02/26 06:06:27;;;;;;;;;;;9.60;90.80;;;;;;5088007;28;19916;-73
2022/02/26 06:08:53;;;;;;;;;;;9.70;90.90;;;;;;5087934;28;20375;-73
2022/02/26 06:11:19;;;;;;;;;;;9.70;91.00;;;;;;5087911;28;20044;-73
2022/02/26 06:13:45;;;;;;;;;;;9.70;90.90;;;;;;5087875;28;20362;-73
2022/02/26 06:16:11;;;;;;;;;;;9.80;91.00;;;;;;5087989;28;20002;-73
2022/02/26 06:18:36;;;;;;;;;;;9.80;91.10;;;;;;5087880;28;19919;-73
2022/02/26 06:21:02;;;;;;;;;;;9.80;91.10;;;;;;5087810;28;19908;-73
2022/02/26 06:23:28;;;;;;;;;;;9.80;91.20;;;;;;5086195;28;19920;-73
2022/02/26 06:25:53;;;;;;;;;;;9.80;91.20;;;;;;5088684;28;20359;-73
2022/02/26 06:28:19;;;;;;;;;;;9.80;91.30;;;;;;5091636;28;19959;-73
2022/02/26 06:30:44;;;;;;;;;;;9.80;91.30;;;;;;5092026;28;19908;-73
2022/02/26 06:33:13;;;;;;;;;;;9.80;91.30;;;;;;5091452;28;20228;-74
2022/02/26 06:35:39;;;;;;;;;;;9.80;91.30;;;;;;5091401;28;19963;-73
2022/02/26 06:38:05;;;;;;;;;;;9.80;91.40;;;;;;5091633;28;19908;-73
2022/02/26 06:40:31;;;;;;;;;;;9.70;91.40;;;;;;5091691;28;20278;-73
2022/02/26 06:42:56;;;;;;;;;;;9.80;91.40;;;;;;5091477;28;19923;-73
2022/02/26 06:45:22;;;;;;;;;;;9.70;91.40;;;;;;5091472;28;20367;-73
2022/02/26 06:47:47;;;;;;;;;;;9.70;91.40;;;;;;5091395;28;19986;-73
2022/02/26 06:50:13;;;;;;;;;;;9.80;91.40;;;;;;5091394;28;20007;-73
2022/02/26 06:52:39;;;;;;;;;;;9.80;91.30;;;;;;5091147;28;20000;-73
2022/02/26 06:55:04;;;;;;;;;;;9.80;91.30;;;;;;5091205;28;19908;-73
2022/02/26 06:57:30;;;;;;;;;;;9.80;91.30;;;;;;5091140;28;19912;-73
2022/02/26 06:59:55;;;;;;;;;;;9.80;91.30;;;;;;5091045;28;19922;-72
2022/02/26 07:02:21;;;;;;;;;;;9.90;91.20;;;;;;5090793;28;19916;-73
2022/02/26 07:04:47;;;;;;;;;;;9.90;91.20;;;;;;5091081;28;20006;-73
2022/02/26 07:07:12;;;;;;;;;;;9.90;91.20;;;;;;5091031;28;19920;-73
2022/02/26 07:09:38;;;;;;;;;;;9.90;91.10;;;;;;5089731;28;19912;-73
2022/02/26 07:12:04;;;;;;;;;;;9.90;91.10;;;;;;5090854;28;19923;-73
2022/02/26 07:14:29;;;;;;;;;;;9.90;91.10;;;;;;5091028;28;19908;-73
2022/02/26 07:16:55;;;;;;;;;;;10.00;91.20;;;;;;5090963;28;19961;-73
2022/02/26 07:19:20;;;;;;;;;;;10.00;91.20;;;;;;5090865;28;20420;-73
2022/02/26 07:21:46;;;;;;;;;;;10.00;91.20;;;;;;5090621;28;20273;-73
2022/02/26 07:24:11;;;;;;;;;;;10.00;91.20;;;;;;5091194;28;19916;-73
2022/02/26 07:26:38;;;;;;;;;;;10.00;91.20;;;;;;5090622;28;19947;-73
2022/02/26 07:29:05;;;;;;;;;;;10.00;91.30;;;;;;5090629;28;19916;-73
2022/02/26 07:31:30;;;;;;;;;;;10.00;91.30;;;;;;5090540;28;19914;-73
2022/02/26 07:33:56;;;;;;;;;;;10.00;91.30;;;;;;5090334;28;20007;-73
2022/02/26 07:36:22;;;;;;;;;;;10.00;91.30;;;;;;5089629;28;19916;-73
2022/02/26 07:38:48;;;;;;;;;;;9.90;91.30;;;;;;5090720;28;20296;-73
2022/02/26 07:41:13;;;;;;;;;;;10.00;91.40;;;;;;5090328;28;19971;-73
2022/02/26 07:43:39;;;;;;;;;;;9.90;91.40;;;;;;5090118;28;19997;-73
2022/02/26 07:46:05;;;;;;;;;;;10.00;91.40;;;;;;5089045;28;19912;-73
2022/02/26 07:48:31;;;;;;;;;;;10.00;91.40;;;;;;5088782;28;19920;-73
2022/02/26 07:50:56;;;;;;;;;;;10.00;91.30;;;;;;5088752;28;20309;-73
2022/02/26 07:53:23;;;;;;;;;;;9.90;91.30;;;;;;5090067;28;19951;-73
2022/02/26 07:55:49;;;;;;;;;;;9.90;91.30;;;;;;5089866;28;19944;-70
2022/02/26 07:58:14;;;;;;;;;;;9.90;91.30;;;;;;5089932;28;19946;-73
2022/02/26 08:00:40;;;;;;;;;;;9.90;91.40;;;;;;5088509;28;20273;-73
2022/02/26 08:03:05;;;;;;;;;;;9.90;91.40;;;;;;5089669;28;19924;-73
2022/02/26 08:05:31;;;;;;;;;;;10.00;91.30;;;;;;5089616;28;20010;-73
2022/02/26 08:07:57;;;;;;;;;;;10.00;91.20;;;;;;5088535;28;19912;-73
2022/02/26 08:10:24;;;;;;;;;;;10.10;91.20;;;;;;5089649;28;19948;-73
2022/02/26 08:12:49;;;;;;;;;;;10.10;91.20;;;;;;5089630;28;19919;-73
2022/02/26 08:15:17;;;;;;;;;;;10.10;91.10;;;;;;5089582;28;19912;-73
2022/02/26 08:17:44;;;;;;;;;;;10.10;91.00;;;;;;5089537;28;20021;-73
2022/02/26 08:20:10;;;;;;;;;;;10.20;91.00;;;;;;5089431;28;19908;-73
2022/02/26 08:22:36;;;;;;;;;;;10.20;90.90;;;;;;5087632;28;19920;-73
2022/02/26 08:25:01;;;;;;;;;;;10.20;91.00;;;;;;5087927;28;20293;-73
2022/02/26 08:27:27;;;;;;;;;;;10.20;90.80;;;;;;5088958;28;20359;-73
2022/02/26 08:29:52;;;;;;;;;;;10.30;90.70;;;;;;5089174;28;19912;-73
2022/02/26 08:32:18;;;;;;;;;;;10.30;90.60;;;;;;5089155;28;19924;-73
2022/02/26 08:34:44;;;;;;;;;;;10.30;90.70;;;;;;5089096;28;19930;-73
2022/02/26 08:37:09;;;;;;;;;;;10.30;90.50;;;;;;5089072;28;19977;-73
2022/02/26 08:39:35;;;;;;;;;;;10.40;90.40;;;;;;5089180;28;19961;-73
2022/02/26 08:42:01;;;;;;;;;;;10.40;90.40;;;;;;5088539;28;19924;-74
2022/02/26 08:44:27;;;;;;;;;;;10.40;90.40;;;;;;5087464;28;19924;-73
2022/02/26 08:46:52;;;;;;;;;;;10.50;90.40;;;;;;5088940;28;19912;-73
2022/02/26 08:49:18;;;;;;;;;;;10.50;90.50;;;;;;5088582;28;20003;-73
2022/02/26 08:51:44;;;;;;;;;;;10.60;90.40;;;;;;5088553;28;19909;-73
2022/02/26 08:54:09;;;;;;;;;;;10.60;90.40;;;;;;5088782;28;19965;-74
2022/02/26 08:56:35;;;;;;;;;;;10.60;90.40;;;;;;5088376;28;19915;-74
2022/02/26 08:59:01;;;;;;;;;;;10.60;90.40;;;;;;5088572;28;19912;-73
2022/02/26 09:01:26;;;;;;;;;;;10.60;90.50;;;;;;5088179;28;19926;-74
2022/02/26 09:03:52;;;;;;;;;;;10.60;90.50;;;;;;5088328;28;19912;-73
2022/02/26 09:06:18;;;;;;;;;;;10.60;90.60;;;;;;5088255;28;20631;-73
2022/02/26 09:08:43;;;;;;;;;;;10.60;90.60;;;;;;5086804;28;19958;-73
2022/02/26 09:11:10;;;;;;;;;;;10.60;90.70;;;;;;5088353;28;19921;-74
2022/02/26 09:13:40;;;;;;;;;;;10.50;90.70;;;;;;5086700;28;20273;-73
2022/02/26 09:16:06;;;;;;;;;;;10.60;90.80;;;;;;5088250;28;19995;-73
2022/02/26 09:18:31;;;;;;;;;;;10.60;90.90;;;;;;5088334;28;20015;-73
2022/02/26 09:20:57;;;;;;;;;;;10.60;91.00;;;;;;5088150;28;19912;-73
2022/02/26 09:23:23;;;;;;;;;;;10.70;91.00;;;;;;5087654;28;19923;-74
2022/02/26 09:25:49;;;;;;;;;;;10.70;91.00;;;;;;5088105;28;19961;-74
2022/02/26 09:28:14;;;;;;;;;;;10.80;91.00;;;;;;5088027;28;19916;-74
2022/02/26 09:30:41;;;;;;;;;;;10.90;91.10;;;;;;5087603;28;20323;-74
2022/02/26 09:33:06;;;;;;;;;;;11.10;91.00;;;;;;5087181;28;19912;-72
2022/02/26 09:35:32;;;;;;;;;;;11.50;91.10;;;;;;5087408;28;19924;-72
2022/02/26 09:37:57;;;;;;;;;;;12.10;91.40;;;;;;5086300;28;19962;-72
2022/02/26 09:40:23;;;;;;;;;;;12.80;90.90;;;;;;5087612;28;19912;-73
2022/02/26 09:42:49;;;;;;;;;;;13.30;90.00;;;;;;5087450;28;19942;-72
2022/02/26 09:45:16;;;;;;;;;;;13.50;87.80;;;;;;5086370;28;19947;-72
2022/02/26 09:47:42;;;;;;;;;;;13.80;87.40;;;;;;5087795;28;19931;-73
2022/02/26 09:50:07;;;;;;;;;;;14.20;86.40;;;;;;5087259;28;19909;-73
2022/02/26 09:52:37;;;;;;;;;;;14.40;85.00;;;;;;5086467;28;20380;-72
2022/02/26 09:55:03;;;;;;;;;;;14.20;82.00;;;;;;5087104;28;19999;-73
2022/02/26 09:57:29;;;;;;;;;;;13.80;82.60;;;;;;5087706;28;19908;-73
2022/02/26 09:59:54;;;;;;;;;;;13.70;84.50;;;;;;5090217;28;19958;-74
2022/02/26 10:02:27;;;;;;;;;;;14.00;85.40;;;;;;5095134;28;20411;-74
2022/02/26 10:04:54;;;;;;;;;;;14.20;84.70;;;;;;5094598;28;19915;-73
2022/02/26 10:07:22;;;;;;;;;;;14.10;82.90;;;;;;5094869;28;19916;-73
2022/02/26 10:09:48;;;;;;;;;;;14.00;83.10;;;;;;5095124;28;20006;-73
2022/02/26 10:12:21;;;;;;;;;;;14.20;83.90;;;;;;5094947;28;20030;-73
2022/02/26 10:14:47;;;;;;;;;;;14.50;83.90;;;;;;5093621;28;20232;-73
2022/02/26 10:17:22;;;;;;;;;;;14.90;83.40;;;;;;5094005;28;19915;-74
2022/02/26 10:19:48;;;;;;;;;;;15.20;83.20;;;;;;5094866;28;19912;-74
2022/02/26 10:22:13;;;;;;;;;;;15.80;83.70;;;;;;5094494;28;20227;-72
2022/02/26 10:24:40;;;;;;;;;;;16.00;82.00;;;;;;5094853;28;19912;-73
2022/02/26 10:27:09;;;;;;;;;;;16.30;80.20;;;;;;5095128;28;19923;-73
2022/02/26 10:29:39;;;;;;;;;;;16.30;78.70;;;;;;5094945;28;20395;-73
2022/02/26 10:32:06;;;;;;;;;;;16.30;76.90;;;;;;5094297;28;19912;-74
2022/02/26 10:34:33;;;;;;;;;;;15.90;76.30;;;;;;5094300;28;19981;-73
2022/02/26 10:37:06;;;;;;;;;;;15.40;76.00;;;;;;5093482;28;20323;-74
2022/02/26 10:39:36;;;;;;;;;;;15.10;76.40;;;;;;5093019;28;20382;-73
2022/02/26 10:42:02;;;;;;;;;;;14.60;76.50;;;;;;5094484;28;20384;-73
2022/02/26 10:44:28;;;;;;;;;;;14.30;77.40;;;;;;5093348;28;19919;-73
2022/02/26 10:47:03;;;;;;;;;;;14.00;77.40;;;;;;5094500;28;19912;-74
2022/02/26 10:49:30;;;;;;;;;;;14.30;79.00;;;;;;5093301;28;19948;-73
2022/02/26 10:51:55;;;;;;;;;;;14.80;78.30;;;;;;5094294;28;20346;-74
2022/02/26 10:54:25;;;;;;;;;;;15.10;76.70;;;;;;5093843;28;19962;-73
2022/02/26 10:56:51;;;;;;;;;;;15.10;75.80;;;;;;5092558;28;19908;-73
2022/02/26 10:59:30;;;;;;;;;;;14.90;75.60;;;;;;5092960;28;19913;-74
2022/02/26 11:02:25;;;;;;;;;;;14.80;76.00;;;;;;5090241;28;19912;-73
2022/02/26 11:04:53;;;;;;;;;;;14.60;75.20;;;;;;5087667;28;19916;-73
2022/02/26 11:07:19;;;;;;;;;;;14.40;75.20;;;;;;5089546;28;19916;-73
2022/02/26 11:09:47;;;;;;;;;;;14.30;75.40;;;;;;5082072;28;19947;-74
2022/02/26 11:12:15;;;;;;;;;;;14.00;75.30;;;;;;5080022;28;19920;-73
2022/02/26 11:15:00;;;;;;;;;;;13.80;76.10;;;;;;5082705;28;20239;-72
2022/02/26 11:17:28;;;;;;;;;;;13.80;77.30;;;;;;5081212;28;19973;-74
2022/02/26 11:19:59;;;;;;;;;;;14.00;77.30;;;;;;5078720;28;19945;-72
2022/02/26 11:22:25;;;;;;;;;;;14.00;77.20;;;;;;5081049;28;20437;-72
2022/02/26 11:24:53;;;;;;;;;;;14.00;76.60;;;;;;5078782;28;19946;-72
2022/02/26 11:27:20;;;;;;;;;;;14.10;76.90;;;;;;5075120;28;19920;-73
2022/02/26 11:29:46;;;;;;;;;;;14.10;76.00;;;;;;5087098;28;19916;-73
2022/02/26 11:32:13;;;;;;;;;;;13.90;75.90;;;;;;5088626;28;20057;-74
2022/02/26 11:34:39;;;;;;;;;;;13.70;76.00;;;;;;5089407;28;19954;-70
2022/02/26 11:37:12;;;;;;;;;;;13.60;77.00;;;;;;5090204;28;19928;-74
2022/02/26 11:39:42;;;;;;;;;;;13.70;77.00;;;;;;5084847;28;19916;-74
2022/02/26 11:42:13;;;;;;;;;;;13.70;77.10;;;;;;5090362;28;20011;-75
2022/02/26 11:44:53;;;;;;;;;;;13.70;76.40;;;;;;5088688;28;19973;-74
2022/02/26 11:47:20;;;;;;;;;;;13.60;76.50;;;;;;5087820;28;19939;-72
2022/02/26 11:49:59;;;;;;;;;;;13.50;76.30;;;;;;5089614;28;19912;-73
2022/02/26 11:52:43;;;;;;;;;;;13.40;76.10;;;;;;5087559;28;20327;-73
2022/02/26 11:55:21;;;;;;;;;;;13.20;76.20;;;;;;5088566;28;20010;-73
2022/02/26 11:57:49;;;;;;;;;;;13.00;76.40;;;;;;5088057;28;19976;-74
2022/02/26 12:00:16;;;;;;;;;;;12.90;76.70;;;;;;5089821;28;20003;-73
2022/02/26 12:02:42;;;;;;;;;;;12.80;76.90;;;;;;5089591;28;20274;-74
2022/02/26 12:05:09;;;;;;;;;;;12.60;77.30;;;;;;5090089;28;19908;-73
2022/02/26 12:07:45;;;;;;;;;;;12.50;77.70;;;;;;5089937;28;19929;-73
2022/02/26 12:10:11;;;;;;;;;;;12.50;78.20;;;;;;5089127;28;19908;-73
2022/02/26 12:12:41;;;;;;;;;;;12.40;78.60;;;;;;5086058;28;20002;-75
2022/02/26 12:15:17;;;;;;;;;;;12.30;78.90;;;;;;5088795;28;20687;-74
2022/02/26 12:17:46;;;;;;;;;;;12.30;79.10;;;;;;5086927;28;19912;-74
2022/02/26 12:20:18;;;;;;;;;;;12.30;79.70;;;;;;5089161;28;19916;-74
2022/02/26 12:22:45;;;;;;;;;;;12.40;79.90;;;;;;5088581;28;19912;-74
2022/02/26 12:25:12;;;;;;;;;;;12.40;79.80;;;;;;5089361;28;19908;-74
2022/02/26 12:27:38;;;;;;;;;;;12.50;80.00;;;;;;5086970;28;19948;-74
2022/02/26 12:30:13;;;;;;;;;;;12.50;80.00;;;;;;5089813;28;19994;-74
2022/02/26 12:33:20;;;;;;;;;;;12.50;80.30;;;;;;5084341;28;19920;-74
2022/02/26 12:35:47;;;;;;;;;;;12.60;80.40;;;;;;5047443;28;19924;-74
2022/02/26 12:38:24;;;;;;;;;;;12.90;80.60;;;;;;5087473;28;20149;-74
2022/02/26 12:40:49;;;;;;;;;;;13.20;80.30;;;;;;5087462;28;20281;-74
2022/02/26 12:43:19;;;;;;;;;;;13.30;80.30;;;;;;5088405;28;19973;-75
2022/02/26 12:45:46;;;;;;;;;;;13.40;80.30;;;;;;5088999;28;19909;-73
2022/02/26 12:48:51;;;;;;;;;;;13.50;79.70;;;;;;5070984;28;19916;-73
2022/02/26 12:51:39;;;;;;;;;;;13.60;79.30;;;;;;5087323;28;19908;-74
2022/02/26 12:54:09;;;;;;;;;;;13.70;79.20;;;;;;5068779;28;20008;-75
2022/02/26 12:56:43;;;;;;;;;;;13.70;78.50;;;;;;5080812;28;19981;-70
2022/02/26 12:59:17;;;;;;;;;;;13.60;78.00;;;;;;5085897;28;19912;-73
2022/02/26 13:01:43;;;;;;;;;;;13.50;78.00;;;;;;5087281;28;19912;-74
2022/02/26 13:04:14;;;;;;;;;;;13.50;78.10;;;;;;5088488;28;19916;-73
2022/02/26 13:06:50;;;;;;;;;;;13.40;77.60;;;;;;5084565;28;19916;-73
2022/02/26 13:09:15;;;;;;;;;;;13.40;77.60;;;;;;5087701;28;19969;-73
2022/02/26 13:11:48;;;;;;;;;;;13.40;76.60;;;;;;5086723;28;19920;-73
2022/02/26 13:14:14;;;;;;;;;;;13.20;76.60;;;;;;5086069;28;19966;-74
2022/02/26 13:16:42;;;;;;;;;;;13.20;77.00;;;;;;5088002;28;19976;-72
2022/02/26 13:19:09;;;;;;;;;;;13.10;77.20;;;;;;5087515;28;19998;-73
2022/02/26 13:21:35;;;;;;;;;;;12.90;77.20;;;;;;5083725;28;19912;-74
2022/02/26 13:24:05;;;;;;;;;;;12.80;77.30;;;;;;5087670;28;20266;-73
2022/02/26 13:26:32;;;;;;;;;;;12.70;77.70;;;;;;5088219;28;20035;-73
2022/02/26 13:28:57;;;;;;;;;;;12.60;77.90;;;;;;5088634;28;20003;-73
2022/02/26 13:31:33;;;;;;;;;;;12.60;78.20;;;;;;5087103;28;20307;-73
2022/02/26 13:34:18;;;;;;;;;;;12.50;78.30;;;;;;5088135;28;19926;-73
2022/02/26 13:36:45;;;;;;;;;;;12.50;78.50;;;;;;5083731;28;19909;-72
2022/02/26 13:39:11;;;;;;;;;;;12.50;78.70;;;;;;5088430;28;19912;-73
2022/02/26 13:41:38;;;;;;;;;;;12.50;78.90;;;;;;5087958;28;20451;-75
2022/02/26 13:44:12;;;;;;;;;;;12.50;79.10;;;;;;5088627;28;20278;-72
2022/02/26 13:46:42;;;;;;;;;;;12.50;79.00;;;;;;5087251;28;19912;-72
2022/02/26 13:49:10;;;;;;;;;;;12.50;79.20;;;;;;5087992;28;20299;-73
2022/02/26 13:51:37;;;;;;;;;;;12.50;79.00;;;;;;5087655;28;19969;-72
2022/02/26 13:54:07;;;;;;;;;;;12.50;79.30;;;;;;5087498;28;19948;-75
2022/02/26 13:56:34;;;;;;;;;;;12.40;79.20;;;;;;5088377;28;19944;-74
2022/02/26 13:59:00;;;;;;;;;;;12.50;79.20;;;;;;5088085;28;19912;-72
2022/02/26 14:01:25;;;;;;;;;;;12.50;79.30;;;;;;5088114;28;19916;-72
2022/02/26 14:03:53;;;;;;;;;;;12.50;78.80;;;;;;5088606;28;19952;-72
2022/02/26 14:06:29;;;;;;;;;;;12.50;78.70;;;;;;5088818;28;19916;-71
2022/02/26 14:08:55;;;;;;;;;;;12.40;78.80;;;;;;5088288;28;19912;-72
2022/02/26 14:11:22;;;;;;;;;;;12.40;78.60;;;;;;5089665;28;20004;-72
2022/02/26 14:13:48;;;;;;;;;;;12.40;78.50;;;;;;5089145;28;19926;-71
2022/02/26 14:16:14;;;;;;;;;;;12.30;78.40;;;;;;5087528;28;19913;-72
2022/02/26 14:18:39;;;;;;;;;;;12.20;78.30;;;;;;5086862;28;19981;-72
2022/02/26 14:21:05;;;;;;;;;;;12.20;78.30;;;;;;5087584;28;19912;-73